YBL weather

Campbell River Airport
Campbell River, British Columbia, Canada

Public forecast

Using degrees Celsius for public forecast. Weather courtesy of forecast.io.

METAR (pilot weather report)

Retrieved 2019/01/17 16:38 UTC (13 minutes ago):

CYBL 171638Z 33003KT 1 1/2SM -RA BR SCT002 OVC006 01/01 A2949 RMK SF4SF4 SLP991

TAF (pilot weather forecast)

Retrieved 2019/01/17 16:39 UTC (12 minutes ago):

TAF TAF CYBL 171538Z 1716/1804 VRB03KT 1SM -RA BR OVC002 TEMPO 1716/1720 3SM -RA BR SCT002 OVC005 FM172000 14005KT 3SM BR OVC005 TEMPO 1720/1804 6SM -RA BR SCT005 OVC010 BECMG 1723/1801 14012G22KT RMK NXT FCST BY 171900Z